createdAt,value
2019-02-25T00:02:27.898Z,15.97
2019-02-25T00:04:59.125Z,15.43
2019-02-25T00:07:29.546Z,14.53
2019-02-25T00:09:59.982Z,15.20
2019-02-25T00:12:30.217Z,14.47
2019-02-25T00:15:01.700Z,14.53
2019-02-25T00:17:34.647Z,14.77
2019-02-25T00:20:08.965Z,15.07
2019-02-25T00:22:40.913Z,15.73
2019-02-25T00:25:11.588Z,15.43
2019-02-25T00:27:43.661Z,15.80
2019-02-25T00:30:14.654Z,14.53
2019-02-25T00:32:45.964Z,15.60
2019-02-25T00:35:22.538Z,15.07
2019-02-25T00:37:55.083Z,14.57
2019-02-25T00:40:27.529Z,16.13
2019-02-25T00:42:57.662Z,15.60
2019-02-25T00:45:28.420Z,16.27
2019-02-25T00:48:01.525Z,15.40
2019-02-25T00:50:31.846Z,14.80
2019-02-25T00:53:04.931Z,15.93
2019-02-25T00:55:36.968Z,15.40
2019-02-25T00:58:10.192Z,14.10
2019-02-25T01:00:40.859Z,15.07
2019-02-25T01:03:12.299Z,15.10
2019-02-25T01:05:43.867Z,14.57
2019-02-25T01:08:16.803Z,15.30
2019-02-25T01:10:47.358Z,15.80
2019-02-25T01:13:19.431Z,15.80
2019-02-25T01:15:49.861Z,14.87
2019-02-25T01:18:20.315Z,15.20
2019-02-25T01:20:50.477Z,14.13
2019-02-25T01:23:22.586Z,13.90
2019-02-25T01:25:54.664Z,15.67
2019-02-25T01:28:25.030Z,14.90
2019-02-25T01:30:56.240Z,14.80
2019-02-25T01:33:28.811Z,14.40
2019-02-25T01:36:00.375Z,14.17
2019-02-25T01:38:32.609Z,14.90
2019-02-25T01:41:02.975Z,14.60
2019-02-25T01:43:33.706Z,15.40
2019-02-25T01:46:03.942Z,14.53
2019-02-25T01:48:34.860Z,14.40
2019-02-25T01:51:05.165Z,15.80
2019-02-25T01:53:35.542Z,15.27
2019-02-25T01:56:07.807Z,14.63
2019-02-25T01:58:41.000Z,15.03
2019-02-25T02:01:11.382Z,15.20
2019-02-25T02:03:42.917Z,16.30
2019-02-25T02:06:15.462Z,15.87
2019-02-25T02:08:45.793Z,14.90
2019-02-25T02:11:17.843Z,14.50
2019-02-25T02:13:49.497Z,15.50
2019-02-25T02:16:20.051Z,16.00
2019-02-25T02:18:52.329Z,14.20
2019-02-25T02:21:22.760Z,16.10
2019-02-25T02:23:55.460Z,16.07
2019-02-25T02:26:25.806Z,15.30
2019-02-25T02:28:57.327Z,15.33
2019-02-25T02:31:28.584Z,14.77
2019-02-25T02:33:59.737Z,13.90
2019-02-25T02:36:30.499Z,15.13
2019-02-25T02:39:00.938Z,15.10
2019-02-25T02:42:20.137Z,14.90
2019-02-25T02:45:05.302Z,15.13
2019-02-25T02:48:06.854Z,15.80
2019-02-25T02:50:37.066Z,14.80
2019-02-25T02:53:07.412Z,16.17
2019-02-25T02:55:37.780Z,15.67
2019-02-25T02:58:07.861Z,15.33
2019-02-25T03:00:39.804Z,13.77
2019-02-25T03:03:10.286Z,15.20
2019-02-25T03:05:41.594Z,14.90
2019-02-25T03:08:12.936Z,14.77
2019-02-25T03:10:43.387Z,14.63
2019-02-25T03:13:14.448Z,14.47
2019-02-25T03:15:44.957Z,16.43
2019-02-25T03:18:15.398Z,16.30
2019-02-25T03:20:48.784Z,15.93
2019-02-25T03:23:19.112Z,16.07
2019-02-25T03:25:50.568Z,15.80
2019-02-25T03:28:21.076Z,15.40
2019-02-25T03:30:51.484Z,15.83
2019-02-25T03:33:21.933Z,14.47
2019-02-25T03:35:52.278Z,17.13
2019-02-25T03:38:23.438Z,15.87
2019-02-25T03:40:54.941Z,14.40
2019-02-25T03:43:25.221Z,14.50
2019-02-25T03:45:56.002Z,15.63
2019-02-25T03:48:28.069Z,15.03
2019-02-25T03:51:00.030Z,15.77
2019-02-25T03:53:30.940Z,15.23
2019-02-25T03:56:03.144Z,16.10
2019-02-25T03:58:33.844Z,15.50
2019-02-25T04:01:06.014Z,15.30
2019-02-25T04:03:36.638Z,14.70
2019-02-25T04:06:06.977Z,14.33
2019-02-25T04:08:39.250Z,13.90
2019-02-25T04:11:10.945Z,13.40
2019-02-25T04:13:41.868Z,14.33
2019-02-25T04:16:12.077Z,14.30
2019-02-25T04:18:43.687Z,13.40
2019-02-25T04:21:16.217Z,14.00
2019-02-25T04:23:46.644Z,13.70
2019-02-25T04:26:17.882Z,14.23
2019-02-25T04:28:49.249Z,14.17
2019-02-25T04:31:21.394Z,13.07
2019-02-25T04:33:52.021Z,12.97
2019-02-25T04:36:23.306Z,13.17
2019-02-25T04:38:55.882Z,13.57
2019-02-25T04:41:26.031Z,12.70
2019-02-25T04:43:57.663Z,12.87
2019-02-25T04:46:29.637Z,13.90
2019-02-25T04:49:02.725Z,15.17
2019-02-25T04:51:32.961Z,13.10
2019-02-25T04:54:06.347Z,13.63
2019-02-25T04:56:36.513Z,14.40
2019-02-25T04:59:06.956Z,13.73
2019-02-25T05:01:38.504Z,13.60
2019-02-25T05:04:10.626Z,13.70
2019-02-25T05:06:41.463Z,14.20
2019-02-25T05:09:12.862Z,14.63
2019-02-25T05:11:44.871Z,12.27
2019-02-25T05:14:15.734Z,13.67
2019-02-25T05:16:46.599Z,14.30
2019-02-25T05:19:17.819Z,14.60
2019-02-25T05:21:48.184Z,12.33
2019-02-25T05:24:18.371Z,13.50
2019-02-25T05:26:48.729Z,13.03
2019-02-25T05:29:20.927Z,14.73
2019-02-25T05:31:53.025Z,13.80
2019-02-25T05:34:23.463Z,14.10
2019-02-25T05:36:55.600Z,13.20
2019-02-25T05:39:28.818Z,12.43
2019-02-25T05:41:59.311Z,12.63
2019-02-25T05:44:30.585Z,12.30
2019-02-25T05:47:01.411Z,13.80
2019-02-25T05:49:32.622Z,12.90
2019-02-25T05:52:03.753Z,13.10
2019-02-25T05:54:35.474Z,13.63
2019-02-25T05:57:05.535Z,12.33
2019-02-25T05:59:35.581Z,15.80
2019-02-25T06:02:05.875Z,15.97
2019-02-25T06:04:37.943Z,15.10
2019-02-25T06:07:10.598Z,14.80
2019-02-25T06:09:41.132Z,16.70
2019-02-25T06:12:11.908Z,18.30
2019-02-25T06:14:43.364Z,15.20
2019-02-25T06:17:14.938Z,13.70
2019-02-25T06:19:45.277Z,14.17
2019-02-25T06:22:15.405Z,13.23
2019-02-25T06:24:45.764Z,14.43
2019-02-25T06:27:16.130Z,13.87
2019-02-25T06:29:47.711Z,14.07
2019-02-25T06:32:21.003Z,12.77
2019-02-25T06:34:53.273Z,13.70
2019-02-25T06:37:25.012Z,13.47
2019-02-25T06:39:55.343Z,13.23
2019-02-25T06:42:25.679Z,13.80
2019-02-25T06:44:55.906Z,12.30
2019-02-25T06:47:26.357Z,11.27
2019-02-25T06:49:59.373Z,12.50
2019-02-25T06:52:29.721Z,12.50
2019-02-25T06:55:00.141Z,11.13
2019-02-25T06:57:32.327Z,12.57
2019-02-25T07:00:05.106Z,13.57
2019-02-25T07:02:37.451Z,11.23
2019-02-25T07:05:17.205Z,11.87
2019-02-25T07:08:09.806Z,11.50
2019-02-25T07:11:01.110Z,11.80
2019-02-25T07:13:49.855Z,11.57
2019-02-25T07:16:38.286Z,12.90
2019-02-25T07:19:27.037Z,11.13
2019-02-25T07:22:02.284Z,11.80
2019-02-25T07:24:53.185Z,11.20
2019-02-25T07:27:46.936Z,11.60
2019-02-25T07:30:45.918Z,10.87
2019-02-25T07:33:32.116Z,11.50
2019-02-25T07:36:21.374Z,18.53
2019-02-25T07:39:23.418Z,11.60
2019-02-25T07:42:19.026Z,11.97
2019-02-25T07:45:09.114Z,11.47
2019-02-25T07:47:48.649Z,12.37
2019-02-25T07:50:54.890Z,12.83
2019-02-25T07:53:47.465Z,12.30
2019-02-25T07:56:29.623Z,12.80
2019-02-25T07:59:25.231Z,12.13
2019-02-25T08:02:05.700Z,12.20
2019-02-25T08:04:50.963Z,12.47
2019-02-25T08:07:59.047Z,13.13
2019-02-25T08:10:38.590Z,11.97
2019-02-25T08:13:30.303Z,11.17
2019-02-25T08:16:21.713Z,11.57
2019-02-25T08:19:10.154Z,11.47
2019-02-25T08:21:58.810Z,11.87
2019-02-25T08:24:55.843Z,10.43
2019-02-25T08:27:36.811Z,11.60
2019-02-25T08:30:26.067Z,12.10
2019-02-25T08:33:13.286Z,11.17
2019-02-25T08:37:02.657Z,12.20
2019-02-25T08:39:42.837Z,11.70
2019-02-25T08:42:42.157Z,11.03
2019-02-25T08:45:33.876Z,12.00
2019-02-25T08:48:23.651Z,11.97
2019-02-25T08:50:56.270Z,10.50
2019-02-25T08:53:27.670Z,10.57
2019-02-25T08:55:58.447Z,10.07
2019-02-25T08:58:30.585Z,9.60
2019-02-25T09:01:01.019Z,9.73
2019-02-25T09:03:31.345Z,10.23
2019-02-25T09:06:02.500Z,9.17
2019-02-25T09:08:33.905Z,10.30
2019-02-25T09:11:13.698Z,9.70
2019-02-25T09:13:39.416Z,9.70
2019-02-25T09:16:09.945Z,9.47
2019-02-25T09:18:40.381Z,9.43
2019-02-25T09:21:12.244Z,9.50
2019-02-25T09:23:45.136Z,9.73
2019-02-25T09:26:16.433Z,9.90
2019-02-25T09:28:46.707Z,10.27
2019-02-25T09:31:17.034Z,10.03
2019-02-25T09:33:48.388Z,9.20
2019-02-25T09:36:20.333Z,9.37
2019-02-25T09:38:50.887Z,9.00
2019-02-25T09:41:29.716Z,9.90
2019-02-25T09:43:54.099Z,9.13
2019-02-25T09:46:25.555Z,9.37
2019-02-25T09:48:55.784Z,11.10
2019-02-25T09:51:26.465Z,11.07
2019-02-25T09:53:57.075Z,10.13
2019-02-25T09:56:28.528Z,10.23
2019-02-25T09:59:00.165Z,9.43
2019-02-25T10:01:30.602Z,10.20
2019-02-25T10:04:01.040Z,9.57
2019-02-25T10:06:34.221Z,10.17
2019-02-25T10:09:06.917Z,10.10
2019-02-25T10:11:38.768Z,11.40
2019-02-25T10:14:11.790Z,11.03
2019-02-25T10:16:42.223Z,10.67
2019-02-25T10:19:12.627Z,11.33
2019-02-25T10:21:42.918Z,12.00
2019-02-25T10:24:14.735Z,11.37
2019-02-25T10:26:45.963Z,11.03
2019-02-25T10:29:17.327Z,11.53
2019-02-25T10:31:48.068Z,11.70
2019-02-25T10:34:19.399Z,11.17
2019-02-25T10:36:52.470Z,12.50
2019-02-25T10:39:24.031Z,13.00
2019-02-25T10:41:59.495Z,12.70
2019-02-25T10:44:31.933Z,13.10
2019-02-25T10:47:03.852Z,12.53
2019-02-25T10:49:35.872Z,12.63
2019-02-25T10:52:08.817Z,12.33
2019-02-25T10:54:40.437Z,11.90
2019-02-25T10:57:16.303Z,12.57
2019-02-25T10:59:47.867Z,11.87
2019-02-25T11:02:19.528Z,11.53
2019-02-25T11:04:51.423Z,12.20
2019-02-25T11:07:23.361Z,12.80
2019-02-25T11:10:04.416Z,11.77
2019-02-25T11:12:35.743Z,11.83
2019-02-25T11:15:09.091Z,12.97
2019-02-25T11:17:42.504Z,12.73
2019-02-25T11:20:13.303Z,12.57
2019-02-25T11:22:45.701Z,11.97
2019-02-25T11:25:16.164Z,12.67
2019-02-25T11:27:47.478Z,12.07
2019-02-25T11:30:21.119Z,11.77
2019-02-25T11:32:53.945Z,11.60
2019-02-25T11:35:24.706Z,12.30
2019-02-25T11:37:58.486Z,12.37
2019-02-25T11:40:29.025Z,11.93
2019-02-25T11:42:59.601Z,11.63
2019-02-25T11:45:33.789Z,10.90
2019-02-25T11:48:04.079Z,11.63
2019-02-25T11:50:34.511Z,12.77
2019-02-25T11:53:06.711Z,11.93
2019-02-25T11:55:37.457Z,11.83
2019-02-25T11:58:08.909Z,11.90
2019-02-25T12:00:39.930Z,12.20
2019-02-25T12:03:15.245Z,11.73
2019-02-25T12:05:45.750Z,11.60
2019-02-25T12:08:19.123Z,11.93
2019-02-25T12:10:49.759Z,12.00
2019-02-25T12:13:19.957Z,12.50
2019-02-25T12:15:50.105Z,12.40
2019-02-25T12:18:21.419Z,12.40
2019-02-25T12:20:52.988Z,12.83
2019-02-25T12:23:27.752Z,12.70
2019-02-25T12:25:58.494Z,12.73
2019-02-25T12:28:30.241Z,12.10
2019-02-25T12:31:00.894Z,12.80
2019-02-25T12:33:31.188Z,13.17
2019-02-25T12:36:01.745Z,11.97
2019-02-25T12:38:32.564Z,12.90
2019-02-25T12:41:03.120Z,11.97
2019-02-25T12:43:33.560Z,11.70
2019-02-25T12:46:04.283Z,15.07
2019-02-25T12:48:36.019Z,11.93
2019-02-25T12:51:07.499Z,12.00
2019-02-25T12:53:37.951Z,11.50
2019-02-25T12:56:12.718Z,11.50
2019-02-25T12:58:43.291Z,11.53
2019-02-25T13:01:14.523Z,12.57
2019-02-25T13:03:46.309Z,11.83
2019-02-25T13:06:17.042Z,10.40
2019-02-25T13:08:48.494Z,11.77
2019-02-25T13:11:18.822Z,12.03
2019-02-25T13:13:49.332Z,10.73
2019-02-25T13:16:19.789Z,11.20
2019-02-25T13:18:51.457Z,11.20
2019-02-25T13:21:21.902Z,10.40
2019-02-25T13:23:54.700Z,10.93
2019-02-25T13:26:27.190Z,11.20
2019-02-25T13:28:58.142Z,12.30
2019-02-25T13:31:29.948Z,12.43
2019-02-25T13:34:02.321Z,11.03
2019-02-25T13:36:32.956Z,11.80
2019-02-25T13:39:06.516Z,11.73
2019-02-25T13:41:37.015Z,11.37
2019-02-25T13:44:07.532Z,12.00
2019-02-25T13:46:40.176Z,12.30
2019-02-25T13:49:12.569Z,10.37
2019-02-25T13:51:44.962Z,11.33
2019-02-25T13:54:15.386Z,11.57
2019-02-25T13:56:50.327Z,12.03
2019-02-25T13:59:22.787Z,12.20
2019-02-25T14:01:53.188Z,11.33
2019-02-25T14:04:23.571Z,12.83
2019-02-25T14:06:54.962Z,11.63
2019-02-25T14:09:25.220Z,12.10
2019-02-25T14:11:56.896Z,11.37
2019-02-25T14:14:29.149Z,11.70
2019-02-25T14:16:59.707Z,11.97
2019-02-25T14:19:30.510Z,12.43
2019-02-25T14:22:01.284Z,12.27
2019-02-25T14:24:32.675Z,11.00
2019-02-25T14:27:02.983Z,12.53
2019-02-25T14:29:33.587Z,10.37
2019-02-25T14:32:05.088Z,10.77
2019-02-25T14:34:37.239Z,11.13
2019-02-25T14:37:09.602Z,11.20
2019-02-25T14:39:40.752Z,11.77
2019-02-25T14:42:13.535Z,11.93
2019-02-25T14:44:49.984Z,11.17
2019-02-25T14:47:25.790Z,11.23
2019-02-25T14:49:55.364Z,11.60
2019-02-25T14:52:29.387Z,10.97
2019-02-25T14:55:01.558Z,11.97
2019-02-25T14:57:35.621Z,10.33
2019-02-25T15:00:10.383Z,10.90
2019-02-25T15:02:41.369Z,10.63
2019-02-25T15:05:15.030Z,10.60
2019-02-25T15:07:48.681Z,10.00
2019-02-25T15:10:19.673Z,10.10
2019-02-25T15:12:58.661Z,8.80
2019-02-25T15:15:26.789Z,8.70
2019-02-25T15:17:57.952Z,8.63
2019-02-25T15:20:28.964Z,8.87
2019-02-25T15:22:59.487Z,9.80
2019-02-25T15:25:33.957Z,9.87
2019-02-25T15:28:09.351Z,9.97
2019-02-25T15:30:39.671Z,9.47
2019-02-25T15:33:10.248Z,9.30
2019-02-25T15:35:43.381Z,10.43
2019-02-25T15:38:14.174Z,8.57
2019-02-25T15:40:44.604Z,7.87
2019-02-25T15:43:18.147Z,8.50
2019-02-25T15:45:48.177Z,7.80
2019-02-25T15:48:20.290Z,7.00
2019-02-25T15:50:55.593Z,7.77
2019-02-25T15:53:26.961Z,8.20
2019-02-25T15:56:01.341Z,7.50
2019-02-25T15:58:32.673Z,6.73
2019-02-25T16:01:05.985Z,7.50
2019-02-25T16:03:37.142Z,7.63
2019-02-25T16:06:11.671Z,7.20
2019-02-25T16:08:45.294Z,7.90
2019-02-25T16:11:20.721Z,7.70
2019-02-25T16:13:55.729Z,7.53
2019-02-25T16:16:26.996Z,8.00
2019-02-25T16:18:58.370Z,7.77
2019-02-25T16:21:31.715Z,8.00
2019-02-25T16:24:04.826Z,7.70
2019-02-25T16:26:36.110Z,7.60
2019-02-25T16:29:09.112Z,7.10
2019-02-25T16:31:41.137Z,7.30
2019-02-25T16:34:14.333Z,7.00
2019-02-25T16:36:49.691Z,7.27
2019-02-25T16:39:19.154Z,6.03
2019-02-25T16:41:51.437Z,6.50
2019-02-25T16:44:21.853Z,7.70
2019-02-25T16:46:54.059Z,7.20
2019-02-25T16:49:24.773Z,8.23
2019-02-25T16:52:00.349Z,7.57
2019-02-25T16:54:31.526Z,6.80
2019-02-25T16:57:03.861Z,7.10
2019-02-25T16:59:35.517Z,7.03
2019-02-25T17:02:07.034Z,6.43
2019-02-25T17:04:38.930Z,8.20
2019-02-25T17:07:11.780Z,7.80
2019-02-25T17:09:44.209Z,7.50
2019-02-25T17:12:15.935Z,7.33
2019-02-25T17:14:46.925Z,8.30
2019-02-25T17:17:17.331Z,8.87
2019-02-25T17:19:48.057Z,10.70
2019-02-25T17:22:20.837Z,11.57
2019-02-25T17:24:54.287Z,13.90
2019-02-25T17:27:28.564Z,19.83
2019-02-25T17:29:59.863Z,26.80
2019-02-25T17:32:31.470Z,16.67
2019-02-25T17:35:05.238Z,20.23
2019-02-25T17:37:37.786Z,20.00
2019-02-25T17:40:12.923Z,13.30
2019-02-25T17:42:44.950Z,9.43
2019-02-25T17:45:18.420Z,12.20
2019-02-25T17:47:48.789Z,18.50
2019-02-25T17:50:19.833Z,21.13
2019-02-25T17:52:50.367Z,16.97
2019-02-25T17:55:20.900Z,16.53
2019-02-25T17:57:52.008Z,14.77
2019-02-25T18:00:49.830Z,12.90
2019-02-25T18:03:21.683Z,20.67
2019-02-25T18:05:56.297Z,23.40
2019-02-25T18:08:27.955Z,19.23
2019-02-25T18:10:59.928Z,17.60
2019-02-25T18:13:32.451Z,17.10
2019-02-25T18:16:03.567Z,16.03
2019-02-25T18:18:36.613Z,14.97
2019-02-25T18:21:08.419Z,15.23
2019-02-25T18:23:39.852Z,14.57
2019-02-25T18:26:12.427Z,14.37
2019-02-25T18:28:43.841Z,14.07
2019-02-25T18:31:20.249Z,15.13
2019-02-25T18:33:52.738Z,15.40
2019-02-25T18:36:26.477Z,13.67
2019-02-25T18:38:56.780Z,14.17
2019-02-25T18:41:31.395Z,13.80
2019-02-25T18:44:01.468Z,12.53
2019-02-25T18:46:32.355Z,13.00
2019-02-25T18:49:05.644Z,12.23
2019-02-25T18:51:39.462Z,12.57
2019-02-25T18:54:10.032Z,12.37
2019-02-25T18:56:43.004Z,11.73
2019-02-25T18:59:17.746Z,10.83
2019-02-25T19:01:51.456Z,10.60
2019-02-25T19:04:22.457Z,11.10
2019-02-25T19:06:53.215Z,9.90
2019-02-25T19:09:26.038Z,10.23
2019-02-25T19:11:58.658Z,10.30
2019-02-25T19:14:31.539Z,10.10
2019-02-25T19:17:06.524Z,11.03
2019-02-25T19:19:38.561Z,15.90
2019-02-25T19:22:12.646Z,16.90
2019-02-25T19:24:47.234Z,14.77
2019-02-25T19:27:18.035Z,12.60
2019-02-25T19:29:54.559Z,11.67
2019-02-25T19:32:26.874Z,12.03
2019-02-25T19:35:01.901Z,11.43
2019-02-25T19:37:38.253Z,10.93
2019-02-25T19:40:13.950Z,10.33
2019-02-25T19:42:51.308Z,9.60
2019-02-25T19:45:21.166Z,10.17
2019-02-25T19:47:52.480Z,10.10
2019-02-25T19:50:25.933Z,11.20
2019-02-25T19:53:02.491Z,9.67
2019-02-25T19:55:33.772Z,9.50
2019-02-25T19:58:04.480Z,9.80
2019-02-25T20:00:35.950Z,11.80
2019-02-25T20:03:07.533Z,10.40
2019-02-25T20:05:43.313Z,12.70
2019-02-25T20:08:15.788Z,14.00
2019-02-25T20:10:49.821Z,18.63
2019-02-25T20:13:22.709Z,18.57
2019-02-25T20:15:56.547Z,17.40
2019-02-25T20:18:27.019Z,26.30
2019-02-25T20:20:59.368Z,18.73
2019-02-25T20:23:31.000Z,15.43
2019-02-25T20:26:02.739Z,14.93
2019-02-25T20:28:35.830Z,14.30
2019-02-25T20:31:08.347Z,18.70
2019-02-25T20:33:39.173Z,35.63
2019-02-25T20:36:09.930Z,25.10
2019-02-25T20:38:40.556Z,17.37
2019-02-25T20:41:16.036Z,19.27
2019-02-25T20:43:47.229Z,18.03
2019-02-25T20:46:23.927Z,15.70
2019-02-25T20:48:56.075Z,17.23
2019-02-25T20:51:29.819Z,18.10
2019-02-25T20:54:02.084Z,19.10
2019-02-25T20:56:33.294Z,20.10
2019-02-25T20:59:06.169Z,19.03
2019-02-25T21:01:42.321Z,17.07
2019-02-25T21:04:13.511Z,18.33
2019-02-25T21:06:44.506Z,17.07
2019-02-25T21:09:15.675Z,17.47
2019-02-25T21:11:45.832Z,16.50
2019-02-25T21:14:16.786Z,16.37
2019-02-25T21:16:48.966Z,16.60
2019-02-25T21:19:20.064Z,15.90
2019-02-25T21:21:55.061Z,15.10
2019-02-25T21:24:24.613Z,14.53
2019-02-25T21:26:59.613Z,15.60
2019-02-25T21:29:31.852Z,15.00
2019-02-25T21:32:05.851Z,17.17
2019-02-25T21:34:36.238Z,13.23
2019-02-25T21:37:06.282Z,19.47
2019-02-25T21:39:38.238Z,23.00
2019-02-25T21:42:10.806Z,28.37
2019-02-25T21:44:40.887Z,27.60
2019-02-25T21:47:11.583Z,21.17
2019-02-25T21:49:41.887Z,12.20
2019-02-25T21:52:15.422Z,12.93
2019-02-25T21:54:46.807Z,13.30
2019-02-25T21:57:17.280Z,14.40
2019-02-25T21:59:50.364Z,14.40
2019-02-25T22:02:22.228Z,15.03
2019-02-25T22:04:53.965Z,13.83
2019-02-25T22:07:26.765Z,14.93
2019-02-25T22:09:56.697Z,13.60
2019-02-25T22:12:28.900Z,14.17
2019-02-25T22:14:59.092Z,14.30
2019-02-25T22:17:29.422Z,13.63
2019-02-25T22:19:59.440Z,14.23
2019-02-25T22:22:31.089Z,13.37
2019-02-25T22:25:05.925Z,13.70
2019-02-25T22:27:36.851Z,13.83
2019-02-25T22:30:09.848Z,13.10
2019-02-25T22:32:40.796Z,13.37
2019-02-25T22:35:14.903Z,12.90
2019-02-25T22:37:49.349Z,13.47
2019-02-25T22:40:17.553Z,12.87
2019-02-25T22:42:50.049Z,11.83
2019-02-25T22:45:19.713Z,12.77
2019-02-25T22:47:49.737Z,12.90
2019-02-25T22:50:19.760Z,12.00
2019-02-25T22:52:55.610Z,12.60
2019-02-25T22:55:22.688Z,13.00
2019-02-25T22:57:54.084Z,12.43
2019-02-25T23:00:33.349Z,13.27
2019-02-25T23:03:04.603Z,13.03
2019-02-25T23:05:34.548Z,13.00
2019-02-25T23:08:04.539Z,13.20
2019-02-25T23:10:38.039Z,12.13
2019-02-25T23:13:06.731Z,14.33
2019-02-25T23:15:36.857Z,12.30
2019-02-25T23:18:10.032Z,12.90
2019-02-25T23:20:38.843Z,13.20
2019-02-25T23:23:08.782Z,13.90
2019-02-25T23:25:38.784Z,13.90
2019-02-25T23:28:09.212Z,13.70
2019-02-25T23:30:40.726Z,13.13
2019-02-25T23:33:14.470Z,13.10
2019-02-25T23:35:46.971Z,13.40
2019-02-25T23:38:17.308Z,13.47
2019-02-25T23:40:49.453Z,13.80
2019-02-25T23:43:19.917Z,14.97
2019-02-25T23:45:50.321Z,13.57
2019-02-25T23:48:21.565Z,16.03
2019-02-25T23:50:54.945Z,14.00
2019-02-25T23:53:28.234Z,16.20
2019-02-25T23:55:58.769Z,15.20
2019-02-25T23:58:29.220Z,12.93
